Time;durP1;ratioP1;P1;durP2;ratioP2;P2;SDS_P1;SDS_P2;PMS_P1;PMS_P2;Temp;Humidity;BMP_temperature;BMP_pressure;BME280_temperature;BME280_humidity;BME280_pressure;Samples;Min_cycle;Max_cycle;Signal;HPM_P1;HPM_P2
2021/05/08 00:01:23;;;;;;;16.27;9.87;;;6.70;66.30;;;;;;5038831;28;20245;-77
2021/05/08 00:03:49;;;;;;;13.70;10.20;;;6.60;66.40;;;;;;5024584;28;20178;-77
2021/05/08 00:06:14;;;;;;;13.80;9.93;;;6.60;66.70;;;;;;5024674;28;20453;-78
2021/05/08 00:08:40;;;;;;;12.03;9.80;;;6.60;67.10;;;;;;5005530;28;20224;-80
2021/05/08 00:11:06;;;;;;;15.73;9.17;;;6.60;67.50;;;;;;5022731;28;20174;-77
2021/05/08 00:13:33;;;;;;;12.87;8.87;;;6.70;67.60;;;;;;5008038;28;20254;-79
2021/05/08 00:15:59;;;;;;;11.67;9.00;;;6.60;67.60;;;;;;5011981;28;20436;-77
2021/05/08 00:18:28;;;;;;;10.80;9.03;;;6.60;67.80;;;;;;5027090;28;20500;-77
2021/05/08 00:20:57;;;;;;;13.30;9.53;;;6.60;67.90;;;;;;5013054;28;21241;-78
2021/05/08 00:23:23;;;;;;;12.70;7.90;;;6.70;68.10;;;;;;5040187;28;20416;-78
2021/05/08 00:25:49;;;;;;;11.83;8.33;;;6.60;68.10;;;;;;5055571;28;20435;-78
2021/05/08 00:28:15;;;;;;;21.40;9.97;;;6.60;68.30;;;;;;5030451;28;20296;-77
2021/05/08 00:30:43;;;;;;;16.33;10.73;;;6.60;68.40;;;;;;5074545;28;20416;-77
2021/05/08 00:33:08;;;;;;;15.50;10.53;;;6.60;68.90;;;;;;5075149;28;20222;-77
2021/05/08 00:35:41;;;;;;;12.60;9.17;;;6.50;69.20;;;;;;5073057;28;20435;-76
2021/05/08 00:38:10;;;;;;;14.50;9.37;;;6.50;69.50;;;;;;5074633;28;20215;-77
2021/05/08 00:40:41;;;;;;;13.57;9.50;;;6.50;70.00;;;;;;5049696;28;20424;-77
2021/05/08 00:43:10;;;;;;;17.13;9.60;;;6.50;70.20;;;;;;5039183;28;20450;-77
2021/05/08 00:45:36;;;;;;;12.43;9.87;;;6.50;70.30;;;;;;5043217;28;20428;-77
2021/05/08 00:48:30;;;;;;;20.07;9.70;;;6.50;70.50;;;;;;5037038;28;20462;-77
2021/05/08 00:50:57;;;;;;;14.50;9.70;;;6.50;70.90;;;;;;5017208;28;20520;-77
2021/05/08 00:53:29;;;;;;;13.70;9.70;;;6.40;70.90;;;;;;5017343;28;20423;-77
2021/05/08 00:56:07;;;;;;;14.43;9.23;;;6.40;70.90;;;;;;5017952;28;20439;-76
2021/05/08 00:58:39;;;;;;;13.70;9.57;;;6.30;71.20;;;;;;5022660;28;20499;-77
2021/05/08 01:01:15;;;;;;;16.57;11.87;;;6.30;71.70;;;;;;5039091;28;20747;-76
2021/05/08 01:03:45;;;;;;;15.73;10.47;;;6.20;71.80;;;;;;5037185;28;20499;-77
2021/05/08 01:06:12;;;;;;;15.33;8.20;;;6.20;71.80;;;;;;5032744;28;20953;-77
2021/05/08 01:08:40;;;;;;;9.27;8.27;;;6.20;71.70;;;;;;5034037;28;20539;-77
2021/05/08 01:11:07;;;;;;;17.20;9.70;;;6.20;71.70;;;;;;5033556;28;20546;-76
2021/05/08 01:13:33;;;;;;;13.77;8.93;;;6.20;71.90;;;;;;5051459;28;20434;-77
2021/05/08 01:15:59;;;;;;;19.20;9.53;;;6.20;71.80;;;;;;5045171;28;20433;-77
2021/05/08 01:18:25;;;;;;;12.93;8.70;;;6.20;71.70;;;;;;5025259;28;20417;-76
2021/05/08 01:20:51;;;;;;;11.10;8.60;;;6.20;71.50;;;;;;5034678;28;20478;-77
2021/05/08 01:23:18;;;;;;;10.73;9.00;;;6.20;71.50;;;;;;5051524;28;21306;-76
2021/05/08 01:25:44;;;;;;;9.30;7.50;;;6.20;71.50;;;;;;5013920;28;20497;-77
2021/05/08 01:28:11;;;;;;;12.50;9.30;;;6.20;71.30;;;;;;5031593;28;20452;-77
2021/05/08 01:30:41;;;;;;;14.23;8.10;;;6.20;71.30;;;;;;5013941;28;20900;-76
2021/05/08 01:33:13;;;;;;;10.93;8.30;;;6.10;71.20;;;;;;5014846;28;20398;-77
2021/05/08 01:35:39;;;;;;;16.63;9.27;;;6.10;71.10;;;;;;4997385;28;20440;-77
2021/05/08 01:38:04;;;;;;;13.80;7.70;;;6.10;70.90;;;;;;5014054;28;20417;-76
2021/05/08 01:40:34;;;;;;;14.03;7.83;;;6.10;71.00;;;;;;5033076;28;20169;-76
2021/05/08 01:43:01;;;;;;;11.20;7.97;;;6.00;71.20;;;;;;5018260;28;20478;-76
2021/05/08 01:45:29;;;;;;;9.80;7.03;;;6.00;71.00;;;;;;5019226;28;20424;-77
2021/05/08 01:47:57;;;;;;;10.43;7.57;;;6.00;71.00;;;;;;5016277;28;20453;-77
2021/05/08 01:50:25;;;;;;;9.83;7.70;;;6.00;71.00;;;;;;5037139;28;20442;-76
2021/05/08 01:52:51;;;;;;;13.33;7.30;;;5.90;71.10;;;;;;5035191;28;20393;-77
2021/05/08 01:55:22;;;;;;;12.20;7.03;;;5.90;71.10;;;;;;5048903;28;20502;-77
2021/05/08 01:57:57;;;;;;;11.80;7.87;;;5.90;71.30;;;;;;5036780;28;20412;-77
2021/05/08 02:00:41;;;;;;;10.90;7.87;;;5.90;71.40;;;;;;5040535;28;20508;-76
2021/05/08 02:03:08;;;;;;;9.73;6.80;;;5.80;72.10;;;;;;5000562;28;20412;-77
2021/05/08 02:05:38;;;;;;;13.50;7.90;;;5.80;71.40;;;;;;5016370;28;20448;-77
2021/05/08 02:08:09;;;;;;;10.10;8.60;;;5.80;71.50;;;;;;5017545;28;20532;-77
2021/05/08 02:10:37;;;;;;;11.97;6.97;;;5.80;71.40;;;;;;5002296;28;20413;-75
2021/05/08 02:13:06;;;;;;;11.43;7.20;;;5.80;71.00;;;;;;5017454;28;20405;-77
2021/05/08 02:15:33;;;;;;;9.80;6.93;;;5.80;70.70;;;;;;5035023;28;20413;-77
2021/05/08 02:18:01;;;;;;;34.63;18.80;;;5.80;70.70;;;;;;5044438;28;20466;-77
2021/05/08 02:20:31;;;;;;;10.50;6.90;;;5.80;70.80;;;;;;5036818;28;20468;-79
2021/05/08 02:22:59;;;;;;;7.20;6.40;;;5.70;71.10;;;;;;5025048;28;20425;-76
2021/05/08 02:25:26;;;;;;;11.03;8.53;;;5.60;72.00;;;;;;5016953;28;20428;-77
2021/05/08 02:27:53;;;;;;;10.90;7.00;;;5.60;71.40;;;;;;5008731;28;20447;-77
2021/05/08 02:30:21;;;;;;;11.03;7.20;;;5.50;71.60;;;;;;5039611;28;20440;-77
2021/05/08 02:32:47;;;;;;;9.17;7.30;;;5.50;72.00;;;;;;5023348;28;20444;-77
2021/05/08 02:35:14;;;;;;;10.27;7.07;;;5.50;72.10;;;;;;5040400;28;20404;-78
2021/05/08 02:37:40;;;;;;;9.53;6.97;;;5.40;72.10;;;;;;5048373;28;20795;-76
2021/05/08 02:40:11;;;;;;;12.93;8.60;;;5.40;72.00;;;;;;5034217;28;20914;-78
2021/05/08 02:42:38;;;;;;;11.07;7.60;;;5.40;71.90;;;;;;5034905;28;20447;-77
2021/05/08 02:45:09;;;;;;;10.23;6.60;;;5.40;71.90;;;;;;5034206;28;20451;-77
2021/05/08 02:47:37;;;;;;;9.80;7.23;;;5.30;71.90;;;;;;5001171;28;20475;-76
2021/05/08 02:50:05;;;;;;;10.23;7.43;;;5.30;71.80;;;;;;5031035;28;20425;-77
2021/05/08 02:52:30;;;;;;;19.10;6.93;;;5.20;71.40;;;;;;5015843;28;20413;-76
2021/05/08 02:54:56;;;;;;;11.50;6.77;;;5.20;71.50;;;;;;5034684;28;20755;-77
2021/05/08 02:57:22;;;;;;;9.70;6.90;;;5.20;71.40;;;;;;5034545;28;20194;-76
2021/05/08 02:59:48;;;;;;;12.20;7.37;;;5.20;71.40;;;;;;5000552;28;20424;-76
2021/05/08 03:02:14;;;;;;;11.00;8.43;;;5.20;71.00;;;;;;5035740;28;20751;-77
2021/05/08 03:04:40;;;;;;;9.37;7.13;;;5.10;70.80;;;;;;5001354;28;20544;-78
2021/05/08 03:07:07;;;;;;;9.13;6.70;;;5.10;70.60;;;;;;5032676;28;20497;-76
2021/05/08 03:09:33;;;;;;;9.37;7.07;;;5.10;70.10;;;;;;5020240;28;20413;-77
2021/05/08 03:12:02;;;;;;;12.67;7.60;;;5.00;69.50;;;;;;5020131;28;20405;-76
2021/05/08 03:14:29;;;;;;;12.70;7.03;;;5.00;69.30;;;;;;5019775;28;20421;-77
2021/05/08 03:16:57;;;;;;;11.03;7.10;;;5.00;68.90;;;;;;5019913;28;20488;-76
2021/05/08 03:19:23;;;;;;;8.80;6.60;;;4.90;68.40;;;;;;5024785;28;20167;-76
2021/05/08 03:21:49;;;;;;;10.10;7.83;;;4.90;68.20;;;;;;5053097;28;20416;-77
2021/05/08 03:24:15;;;;;;;8.77;6.70;;;4.90;67.90;;;;;;5037476;28;20428;-77
2021/05/08 03:26:41;;;;;;;9.70;7.20;;;4.90;67.90;;;;;;5037583;28;20181;-77
2021/05/08 03:29:07;;;;;;;8.83;6.67;;;4.90;68.00;;;;;;5038078;28;20480;-77
2021/05/08 03:31:33;;;;;;;10.73;6.70;;;4.90;68.00;;;;;;5049341;28;20393;-77
2021/05/08 03:34:00;;;;;;;8.33;6.30;;;4.80;67.90;;;;;;5024728;28;20397;-77
2021/05/08 03:36:26;;;;;;;11.70;7.17;;;4.80;67.90;;;;;;5040509;28;20438;-76
2021/05/08 03:38:52;;;;;;;9.27;7.37;;;4.80;68.10;;;;;;5037800;28;20424;-76
2021/05/08 03:41:18;;;;;;;8.30;6.33;;;4.80;68.00;;;;;;5055076;28;20420;-75
2021/05/08 03:43:44;;;;;;;15.73;7.90;;;4.80;67.80;;;;;;5022031;28;20173;-76
2021/05/08 03:46:10;;;;;;;8.57;6.80;;;4.70;67.50;;;;;;5052256;28;20420;-77
2021/05/08 03:48:36;;;;;;;12.63;7.00;;;4.70;67.50;;;;;;5054468;28;20448;-76
2021/05/08 03:51:02;;;;;;;9.20;5.70;;;4.70;67.50;;;;;;5027184;28;20254;-76
2021/05/08 03:53:27;;;;;;;7.93;6.90;;;4.70;67.60;;;;;;5029885;28;20543;-77
2021/05/08 03:55:54;;;;;;;9.90;7.00;;;4.60;67.50;;;;;;5056076;28;20423;-77
2021/05/08 03:58:28;;;;;;;6.97;6.17;;;4.60;67.50;;;;;;5051675;28;20174;-77
2021/05/08 04:00:54;;;;;;;10.83;6.50;;;4.60;67.20;;;;;;5043968;28;20411;-77
2021/05/08 04:03:20;;;;;;;9.50;5.50;;;4.70;67.20;;;;;;5037140;28;20436;-76
2021/05/08 04:05:46;;;;;;;9.97;6.50;;;4.70;67.00;;;;;;5046692;28;20452;-77
2021/05/08 04:08:13;;;;;;;10.60;6.40;;;4.70;67.10;;;;;;5039475;28;20440;-76
2021/05/08 04:10:39;;;;;;;11.03;7.00;;;4.70;67.10;;;;;;5018923;28;20781;-77
2021/05/08 04:13:05;;;;;;;7.17;4.67;;;4.70;66.80;;;;;;5036073;28;20416;-76
2021/05/08 04:15:31;;;;;;;7.00;5.67;;;4.70;66.50;;;;;;5038373;28;20166;-77
2021/05/08 04:17:57;;;;;;;5.83;5.23;;;4.70;66.50;;;;;;5035420;28;20913;-76
2021/05/08 04:20:23;;;;;;;8.40;6.27;;;4.70;66.40;;;;;;5034241;28;20507;-78
2021/05/08 04:22:49;;;;;;;8.00;5.87;;;4.80;66.20;;;;;;5052225;28;20474;-77
2021/05/08 04:25:15;;;;;;;9.70;6.20;;;4.80;65.70;;;;;;5033167;28;20209;-76
2021/05/08 04:27:40;;;;;;;9.10;5.13;;;4.80;65.40;;;;;;5022252;28;20210;-77
2021/05/08 04:30:07;;;;;;;7.53;5.97;;;4.80;65.20;;;;;;5053371;28;20216;-78
2021/05/08 04:32:33;;;;;;;8.70;6.50;;;4.90;65.30;;;;;;5049305;28;20852;-77
2021/05/08 04:34:59;;;;;;;6.90;5.80;;;4.90;65.10;;;;;;5050234;28;20491;-77
2021/05/08 04:37:24;;;;;;;10.03;5.17;;;4.90;65.00;;;;;;5053027;28;20590;-79
2021/05/08 04:39:50;;;;;;;7.33;5.17;;;4.90;64.80;;;;;;5015908;28;20406;-78
2021/05/08 04:42:16;;;;;;;8.33;5.33;;;4.90;64.70;;;;;;5031865;28;20174;-77
2021/05/08 04:44:42;;;;;;;8.23;6.40;;;5.00;64.80;;;;;;5030462;28;20257;-77
2021/05/08 04:47:12;;;;;;;6.03;5.43;;;5.00;64.70;;;;;;5052249;28;20656;-77
2021/05/08 04:49:37;;;;;;;6.43;5.37;;;5.00;64.80;;;;;;5018074;28;20181;-77
2021/05/08 04:52:03;;;;;;;9.23;6.80;;;5.10;64.70;;;;;;5015577;28;20895;-77
2021/05/08 04:54:29;;;;;;;8.77;5.57;;;5.20;64.80;;;;;;5031967;28;20166;-78
2021/05/08 04:56:55;;;;;;;11.73;6.60;;;5.30;64.60;;;;;;5032494;28;20442;-76
2021/05/08 04:59:21;;;;;;;6.43;5.33;;;5.40;64.40;;;;;;5037567;28;20162;-77
2021/05/08 05:01:46;;;;;;;7.33;6.00;;;5.50;64.30;;;;;;5031791;28;20166;-76
2021/05/08 05:04:12;;;;;;;6.30;4.80;;;5.60;64.00;;;;;;5032119;28;20520;-78
2021/05/08 05:06:38;;;;;;;7.67;4.30;;;5.70;63.90;;;;;;5015597;28;20281;-77
2021/05/08 05:09:04;;;;;;;8.67;5.77;;;5.90;63.50;;;;;;5040259;28;20190;-77
2021/05/08 05:11:31;;;;;;;5.27;4.57;;;6.10;63.00;;;;;;5002889;28;20170;-77
2021/05/08 05:13:56;;;;;;;6.60;5.37;;;6.20;61.80;;;;;;5035250;28;20409;-78
2021/05/08 05:16:23;;;;;;;7.20;5.03;;;6.30;61.30;;;;;;5035041;28;20515;-77
2021/05/08 05:18:48;;;;;;;9.77;5.43;;;6.40;61.10;;;;;;5043113;28;20198;-77
2021/05/08 05:21:14;;;;;;;11.03;5.53;;;6.40;60.80;;;;;;5021254;28;20460;-76
2021/05/08 05:23:40;;;;;;;4.33;3.93;;;6.40;60.30;;;;;;5044233;28;20169;-78
2021/05/08 05:26:06;;;;;;;6.50;5.17;;;6.50;59.90;;;;;;5060038;28;20186;-78
2021/05/08 05:28:33;;;;;;;6.90;3.67;;;6.50;60.10;;;;;;5024948;28;20455;-77
2021/05/08 05:30:59;;;;;;;7.30;4.57;;;6.60;60.10;;;;;;5032880;28;20417;-77
2021/05/08 05:33:25;;;;;;;6.40;5.03;;;6.60;60.00;;;;;;5036092;28;20413;-76
2021/05/08 05:35:54;;;;;;;6.80;3.90;;;6.60;59.60;;;;;;5016577;28;20950;-77
2021/05/08 05:38:20;;;;;;;7.80;5.00;;;6.70;59.60;;;;;;5036232;28;20413;-76
2021/05/08 05:40:46;;;;;;;6.67;4.83;;;6.80;59.70;;;;;;5036586;28;20537;-78
2021/05/08 05:43:12;;;;;;;7.50;4.60;;;7.00;59.30;;;;;;5042196;28;20443;-77
2021/05/08 05:45:38;;;;;;;13.37;5.03;;;7.10;58.60;;;;;;5051298;28;20548;-77
2021/05/08 05:48:05;;;;;;;6.97;4.90;;;7.30;58.20;;;;;;5054719;28;20546;-77
2021/05/08 05:50:36;;;;;;;9.60;4.43;;;7.50;57.60;;;;;;5036882;28;20436;-76
2021/05/08 05:53:02;;;;;;;6.90;4.10;;;7.70;57.40;;;;;;5035867;28;20432;-77
2021/05/08 05:55:28;;;;;;;8.50;4.63;;;7.90;56.60;;;;;;5050937;28;21041;-76
2021/05/08 05:57:54;;;;;;;7.53;5.13;;;8.60;56.20;;;;;;5038644;28;20165;-77
2021/05/08 06:00:21;;;;;;;4.07;3.60;;;9.60;53.80;;;;;;5039284;28;20693;-76
2021/05/08 06:02:47;;;;;;;9.57;4.27;;;10.70;50.70;;;;;;5038283;28;20410;-77
2021/05/08 06:05:13;;;;;;;5.77;4.33;;;11.60;48.40;;;;;;5055335;28;20438;-77
2021/05/08 06:07:39;;;;;;;7.37;4.60;;;12.50;46.80;;;;;;5036115;28;20213;-76
2021/05/08 06:10:07;;;;;;;5.80;3.90;;;13.10;44.90;;;;;;5036447;28;20429;-78
2021/05/08 06:12:33;;;;;;;6.17;4.53;;;14.00;44.30;;;;;;5036486;28;20420;-77
2021/05/08 06:14:58;;;;;;;5.47;3.93;;;14.90;42.60;;;;;;5034903;28;20416;-76
2021/05/08 06:17:24;;;;;;;5.03;4.10;;;15.70;40.50;;;;;;5036134;28;20667;-76
2021/05/08 06:19:50;;;;;;;6.60;5.10;;;16.20;39.70;;;;;;5042967;28;20170;-77
2021/05/08 06:22:16;;;;;;;5.87;4.00;;;16.30;37.10;;;;;;5018756;28;20405;-78
2021/05/08 06:24:42;;;;;;;7.07;4.60;;;15.50;37.50;;;;;;5002399;28;20163;-78
2021/05/08 06:27:08;;;;;;;4.70;4.30;;;14.20;38.60;;;;;;5003111;28;20190;-78
2021/05/08 06:29:36;;;;;;;5.73;4.47;;;13.10;40.60;;;;;;5018934;28;20471;-78
2021/05/08 06:32:02;;;;;;;7.00;4.23;;;12.40;42.20;;;;;;5026147;28;20177;-76
2021/05/08 06:34:30;;;;;;;4.27;3.70;;;12.00;43.30;;;;;;5017834;28;20418;-78
2021/05/08 06:36:59;;;;;;;6.60;4.93;;;12.00;44.50;;;;;;5016834;28;20437;-78
2021/05/08 06:39:25;;;;;;;9.00;4.13;;;12.70;44.10;;;;;;5035125;28;20413;-77
2021/05/08 06:41:51;;;;;;;5.10;4.00;;;13.60;42.00;;;;;;5034642;28;20409;-76
2021/05/08 06:44:16;;;;;;;6.30;4.17;;;14.60;41.30;;;;;;5019858;28;20408;-76
2021/05/08 06:46:42;;;;;;;5.07;3.90;;;15.30;39.00;;;;;;5043362;28;20252;-77
2021/05/08 06:49:08;;;;;;;5.77;4.30;;;15.40;37.70;;;;;;5017323;28;20194;-78
2021/05/08 06:51:33;;;;;;;7.27;3.70;;;15.20;37.70;;;;;;5016992;28;20614;-76
2021/05/08 06:53:59;;;;;;;5.00;3.90;;;15.00;38.10;;;;;;5018480;28;20257;-75
2021/05/08 06:56:26;;;;;;;6.50;4.37;;;14.70;38.90;;;;;;5045907;28;20190;-77
2021/05/08 06:58:55;;;;;;;4.00;3.17;;;14.50;39.00;;;;;;5018445;28;20166;-77
2021/05/08 07:01:21;;;;;;;5.33;3.70;;;14.50;39.70;;;;;;5000613;28;20413;-77
2021/05/08 07:03:46;;;;;;;6.00;4.63;;;14.90;39.10;;;;;;5017518;28;20402;-77
2021/05/08 07:06:18;;;;;;;7.33;4.10;;;15.30;39.30;;;;;;5024516;28;20209;-76
2021/05/08 07:08:44;;;;;;;5.30;4.07;;;15.60;37.90;;;;;;5037184;28;20456;-77
2021/05/08 07:11:12;;;;;;;5.13;3.97;;;15.40;36.70;;;;;;5009398;28;20425;-77
2021/05/08 07:13:38;;;;;;;10.90;4.27;;;14.90;37.10;;;;;;5029682;28;20159;-78
2021/05/08 07:16:04;;;;;;;3.97;3.57;;;14.30;38.00;;;;;;5009859;28;20868;-78
2021/05/08 07:18:30;;;;;;;5.03;4.10;;;13.80;38.80;;;;;;5026878;28;20934;-78
2021/05/08 07:20:56;;;;;;;6.00;3.70;;;13.30;40.00;;;;;;5034458;28;20431;-77
2021/05/08 07:23:22;;;;;;;7.60;4.10;;;13.00;40.90;;;;;;5020856;28;20891;-76
2021/05/08 07:25:47;;;;;;;6.63;3.80;;;12.90;41.30;;;;;;5021645;28;20202;-75
2021/05/08 07:28:14;;;;;;;5.77;3.80;;;12.60;41.70;;;;;;5037243;28;20354;-77
2021/05/08 07:30:42;;;;;;;4.80;3.93;;;12.50;41.90;;;;;;5021287;28;20162;-77
2021/05/08 07:33:09;;;;;;;5.60;3.83;;;12.40;42.40;;;;;;5017425;28;20882;-76
2021/05/08 07:35:45;;;;;;;6.07;4.10;;;12.30;42.80;;;;;;5034800;28;20464;-77
2021/05/08 07:38:11;;;;;;;6.07;3.83;;;12.40;42.80;;;;;;5035744;28;20421;-77
2021/05/08 07:40:39;;;;;;;9.60;4.03;;;12.40;42.60;;;;;;5036709;28;20413;-77
2021/05/08 07:43:05;;;;;;;6.90;4.50;;;12.40;42.80;;;;;;5029766;28;20409;-77
2021/05/08 07:45:32;;;;;;;6.33;3.83;;;12.50;42.90;;;;;;5034989;28;20417;-77
2021/05/08 07:47:58;;;;;;;7.10;3.40;;;12.70;42.80;;;;;;5037138;28;20476;-79
2021/05/08 07:50:27;;;;;;;8.10;3.57;;;12.90;42.50;;;;;;5049825;28;20420;-76
2021/05/08 07:52:53;;;;;;;6.17;3.87;;;13.20;42.50;;;;;;5018000;28;20478;-77
2021/05/08 07:55:19;;;;;;;6.30;4.53;;;13.40;42.10;;;;;;5035915;28;20731;-77
2021/05/08 07:57:45;;;;;;;5.90;4.03;;;13.60;42.00;;;;;;5049927;28;20413;-76
2021/05/08 08:00:16;;;;;;;4.90;3.53;;;13.90;41.30;;;;;;5040244;28;20548;-77
2021/05/08 08:02:56;;;;;;;5.50;3.63;;;13.90;41.20;;;;;;5020911;28;20184;-79
2021/05/08 08:05:27;;;;;;;7.10;4.27;;;14.10;40.60;;;;;;5029114;28;20417;-77
2021/05/08 08:07:54;;;;;;;6.13;3.47;;;14.20;40.90;;;;;;5043513;28;20533;-78
2021/05/08 08:10:20;;;;;;;4.83;3.70;;;14.70;40.70;;;;;;5031915;28;20784;-78
2021/05/08 08:12:45;;;;;;;6.10;3.73;;;15.00;39.80;;;;;;5026281;28;20441;-76
2021/05/08 08:15:12;;;;;;;6.10;4.07;;;15.10;39.20;;;;;;5027144;28;20171;-77
2021/05/08 08:17:38;;;;;;;7.60;3.90;;;15.10;38.90;;;;;;5021149;28;20199;-78
2021/05/08 08:20:10;;;;;;;5.43;3.20;;;15.10;39.20;;;;;;5038452;28;20428;-76
2021/05/08 08:22:40;;;;;;;5.03;3.80;;;15.20;39.10;;;;;;5036029;28;20434;-75
2021/05/08 08:25:08;;;;;;;6.20;3.33;;;15.00;39.20;;;;;;5046520;28;20479;-75
2021/05/08 08:27:34;;;;;;;4.03;3.17;;;15.10;39.10;;;;;;5029234;28;20487;-77
2021/05/08 08:30:00;;;;;;;4.67;2.73;;;15.10;38.80;;;;;;5025811;28;20500;-76
2021/05/08 08:32:26;;;;;;;4.37;3.10;;;15.20;38.80;;;;;;5022836;28;20807;-76
2021/05/08 08:34:52;;;;;;;4.17;3.10;;;15.10;38.80;;;;;;5036578;28;20417;-77
2021/05/08 08:37:17;;;;;;;5.97;3.00;;;15.20;39.30;;;;;;5034812;28;20447;-77
2021/05/08 08:39:43;;;;;;;5.47;2.87;;;15.30;38.40;;;;;;5017446;28;20413;-77
2021/05/08 08:42:09;;;;;;;4.77;2.93;;;15.30;38.50;;;;;;5034890;28;20167;-80
2021/05/08 08:44:36;;;;;;;9.60;3.53;;;15.50;38.40;;;;;;5035897;28;20162;-76
2021/05/08 08:47:46;;;;;;;4.87;2.93;;;15.80;38.00;;;;;;5017635;28;20425;-77
2021/05/08 08:49:58;;;;;;;5.93;4.07;;;16.20;37.80;;;;;;5011903;28;20417;-77
2021/05/08 08:53:04;;;;;;;7.30;4.07;;;16.80;37.60;;;;;;5037952;28;20421;-76
2021/05/08 08:55:33;;;;;;;12.10;4.07;;;17.40;36.30;;;;;;4998964;28;20402;-76
2021/05/08 08:58:03;;;;;;;4.80;3.20;;;17.60;35.30;;;;;;5030684;28;20437;-76
2021/05/08 09:00:29;;;;;;;6.07;3.30;;;17.30;35.40;;;;;;5023258;28;20421;-77
2021/05/08 09:02:58;;;;;;;6.50;3.20;;;17.20;35.40;;;;;;5027351;28;20496;-78
2021/05/08 09:05:25;;;;;;;9.97;3.70;;;16.80;35.90;;;;;;5035561;28;20417;-78
2021/05/08 09:07:52;;;;;;;4.70;3.60;;;16.50;36.20;;;;;;5048759;28;20449;-76
2021/05/08 09:10:27;;;;;;;3.47;3.17;;;16.40;36.90;;;;;;5036773;28;20885;-77
2021/05/08 09:12:55;;;;;;;5.50;3.50;;;16.50;37.10;;;;;;5019337;28;20425;-78
2021/05/08 09:15:40;;;;;;;7.03;3.60;;;16.50;36.80;;;;;;5035054;28;20428;-75
2021/05/08 09:18:07;;;;;;;5.00;3.20;;;16.80;37.00;;;;;;5010206;28;20432;-76
2021/05/08 09:20:52;;;;;;;6.37;3.10;;;17.10;36.00;;;;;;5001291;28;20540;-77
2021/05/08 09:23:22;;;;;;;4.93;2.93;;;17.60;36.50;;;;;;5018394;28;20425;-81
2021/05/08 09:26:15;;;;;;;4.60;3.33;;;18.10;35.30;;;;;;5014390;28;20437;-78
2021/05/08 09:28:51;;;;;;;9.30;3.10;;;18.60;33.40;;;;;;5030358;28;20466;-78
2021/05/08 09:31:17;;;;;;;3.77;2.70;;;18.90;33.50;;;;;;5024980;28;20435;-78
2021/05/08 09:33:51;;;;;;;5.73;3.60;;;19.50;33.10;;;;;;5035897;28;20416;-78
2021/05/08 09:36:17;;;;;;;5.67;3.23;;;19.90;32.30;;;;;;5016634;28;20484;-78
2021/05/08 09:38:44;;;;;;;6.23;3.10;;;20.30;31.10;;;;;;5024814;28;20421;-76
2021/05/08 09:41:16;;;;;;;4.83;3.30;;;20.10;30.30;;;;;;5036520;28;20179;-78
2021/05/08 09:43:43;;;;;;;6.57;3.37;;;19.80;31.50;;;;;;5032829;28;20424;-77
2021/05/08 09:46:22;;;;;;;8.07;3.30;;;19.80;31.30;;;;;;5037489;28;20433;-79
2021/05/08 09:48:48;;;;;;;6.20;2.90;;;19.60;30.60;;;;;;5019374;28;20456;-78
2021/05/08 09:51:25;;;;;;;4.30;3.00;;;19.70;30.50;;;;;;5042888;28;20416;-76
2021/05/08 09:53:54;;;;;;;4.53;2.77;;;20.00;30.50;;;;;;5033735;28;20639;-77
2021/05/08 09:56:33;;;;;;;5.80;3.00;;;20.20;29.70;;;;;;5021087;28;20437;-77
2021/05/08 09:59:27;;;;;;;6.00;3.40;;;20.20;29.50;;;;;;5039972;28;20413;-79
2021/05/08 10:02:02;;;;;;;3.60;2.57;;;20.80;29.30;;;;;;5024064;28;20410;-78
2021/05/08 10:04:32;;;;;;;5.03;2.63;;;21.10;28.50;;;;;;5029047;28;20523;-77
2021/05/08 10:07:05;;;;;;;4.80;3.40;;;20.60;28.50;;;;;;5031362;28;20564;-78
2021/05/08 10:09:30;;;;;;;5.10;3.50;;;20.30;29.10;;;;;;5019697;28;20527;-76
2021/05/08 10:11:58;;;;;;;4.60;2.27;;;20.10;29.60;;;;;;5019808;28;20471;-78
2021/05/08 10:14:24;;;;;;;7.47;2.93;;;20.10;29.80;;;;;;5037202;28;20189;-77
2021/05/08 10:16:57;;;;;;;3.57;2.60;;;20.40;29.50;;;;;;5028686;28;20780;-78
2021/05/08 10:19:24;;;;;;;12.80;2.70;;;20.20;28.80;;;;;;5048609;28;20485;-77
2021/05/08 10:21:51;;;;;;;3.97;2.47;;;20.30;28.70;;;;;;5052102;28;20405;-79
2021/05/08 10:24:21;;;;;;;3.50;2.67;;;20.10;28.80;;;;;;5026900;28;20448;-78
2021/05/08 10:26:58;;;;;;;4.43;2.50;;;20.00;28.70;;;;;;5047784;28;20420;-78
2021/05/08 10:29:30;;;;;;;4.40;2.77;;;19.80;29.00;;;;;;5049988;28;20456;-78
2021/05/08 10:31:59;;;;;;;4.77;2.63;;;19.90;28.60;;;;;;5040322;28;20424;-77
2021/05/08 10:34:51;;;;;;;8.20;2.70;;;20.10;28.50;;;;;;5040961;28;20421;-77
2021/05/08 10:37:17;;;;;;;6.50;3.30;;;20.40;28.00;;;;;;5006732;28;21040;-78
2021/05/08 10:39:54;;;;;;;5.80;2.40;;;20.40;27.70;;;;;;5044651;28;20449;-76
2021/05/08 10:42:40;;;;;;;6.70;3.20;;;20.30;28.00;;;;;;5024652;28;20433;-77
2021/05/08 10:45:17;;;;;;;4.10;2.73;;;20.20;28.50;;;;;;5040222;28;20795;-78
2021/05/08 10:47:55;;;;;;;3.90;2.97;;;20.30;28.70;;;;;;5022499;28;21038;-75
2021/05/08 10:50:37;;;;;;;3.53;2.30;;;20.30;28.40;;;;;;5024619;28;20428;-78
2021/05/08 10:53:12;;;;;;;4.93;2.87;;;20.20;28.30;;;;;;5024756;28;20419;-79
2021/05/08 10:55:52;;;;;;;3.23;2.40;;;20.20;28.70;;;;;;5049133;28;20461;-78
2021/05/08 10:58:19;;;;;;;5.47;3.93;;;20.10;28.60;;;;;;5033907;28;20984;-78
2021/05/08 11:00:49;;;;;;;4.80;2.70;;;19.90;28.90;;;;;;5027465;28;20413;-76
2021/05/08 11:03:19;;;;;;;7.10;3.63;;;19.40;28.70;;;;;;5017034;28;20515;-77
2021/05/08 11:05:56;;;;;;;4.87;2.57;;;19.30;29.10;;;;;;5050015;28;20601;-77
2021/05/08 11:08:25;;;;;;;6.27;3.40;;;19.30;29.30;;;;;;5043326;28;20459;-79
2021/05/08 11:10:54;;;;;;;4.47;2.50;;;19.20;29.20;;;;;;5046218;28;20421;-78
2021/05/08 11:13:27;;;;;;;8.23;3.57;;;19.10;29.40;;;;;;5034434;28;20478;-79
2021/05/08 11:18:33;;;;;;;3.93;2.10;;;18.80;29.80;;;;;;5041545;28;20504;-76
2021/05/08 11:21:04;;;;;;;3.40;1.83;;;18.70;29.70;;;;;;5012918;28;20175;-77
2021/05/08 11:24:05;;;;;;;5.10;1.87;;;18.70;29.70;;;;;;5021726;28;20418;-78
2021/05/08 11:26:40;;;;;;;2.93;1.60;;;18.60;29.50;;;;;;5021999;28;20448;-77
2021/05/08 11:29:25;;;;;;;4.10;2.50;;;18.60;29.50;;;;;;5028784;28;20453;-78
2021/05/08 11:31:58;;;;;;;5.57;2.00;;;18.50;29.70;;;;;;5011998;28;20405;-77
2021/05/08 11:34:29;;;;;;;5.20;1.60;;;18.60;29.70;;;;;;5046727;28;20421;-76
2021/05/08 11:36:59;;;;;;;1.90;1.20;;;18.60;29.50;;;;;;5047997;28;20440;-77
2021/05/08 11:39:27;;;;;;;6.03;1.40;;;18.60;29.60;;;;;;5056966;28;20428;-78
2021/05/08 11:41:54;;;;;;;2.10;1.57;;;18.50;29.90;;;;;;5034792;28;20412;-77
2021/05/08 11:44:35;;;;;;;2.00;1.43;;;18.60;30.30;;;;;;5045807;28;20452;-80
2021/05/08 11:50:11;;;;;;;4.83;1.73;;;18.40;32.40;;;;;;5047551;28;20425;-78
2021/05/08 11:52:43;;;;;;;2.40;1.30;;;18.30;32.80;;;;;;5012807;28;20947;-79
2021/05/08 11:55:12;;;;;;;3.67;1.63;;;17.90;34.20;;;;;;5006591;28;20420;-79
2021/05/08 11:57:41;;;;;;;3.90;1.20;;;17.70;35.00;;;;;;5048486;28;20989;-78
2021/05/08 12:00:17;;;;;;;2.50;1.60;;;17.40;35.30;;;;;;5041779;28;20167;-79
2021/05/08 12:02:43;;;;;;;1.70;1.40;;;17.30;35.00;;;;;;5045102;28;20509;-79
2021/05/08 12:05:09;;;;;;;2.30;1.10;;;17.20;35.80;;;;;;5021083;28;20519;-76
2021/05/08 12:07:42;;;;;;;2.60;1.13;;;17.30;36.30;;;;;;5037559;28;20202;-79
2021/05/08 12:10:26;;;;;;;1.30;1.00;;;17.40;36.20;;;;;;5037652;28;20410;-80
2021/05/08 12:12:55;;;;;;;1.67;1.30;;;17.60;35.60;;;;;;5046666;28;20433;-78
2021/05/08 12:15:26;;;;;;;1.47;1.07;;;17.70;35.30;;;;;;5034365;28;20413;-79
2021/05/08 12:17:54;;;;;;;3.10;1.30;;;17.80;34.90;;;;;;5036594;28;20435;-79
2021/05/08 12:20:22;;;;;;;1.47;1.17;;;17.70;34.40;;;;;;5045303;28;20409;-80
2021/05/08 12:22:50;;;;;;;1.83;0.83;;;17.70;34.80;;;;;;5041105;28;20405;-80
2021/05/08 12:25:21;;;;;;;4.13;1.40;;;17.80;35.00;;;;;;5039933;28;20412;-78
2021/05/08 12:27:47;;;;;;;1.90;1.10;;;17.90;34.40;;;;;;5045866;28;20591;-79
2021/05/08 12:30:14;;;;;;;1.40;0.90;;;17.80;34.00;;;;;;5024181;28;20421;-79
2021/05/08 12:32:53;;;;;;;4.80;1.20;;;17.80;34.00;;;;;;5021215;28;20405;-80
2021/05/08 12:35:28;;;;;;;2.60;1.47;;;17.70;34.70;;;;;;5034631;28;20417;-81
2021/05/08 12:37:54;;;;;;;5.90;1.33;;;17.80;34.00;;;;;;5023168;28;20413;-80
2021/05/08 12:40:30;;;;;;;2.17;1.23;;;17.90;34.00;;;;;;5050223;28;20468;-81
2021/05/08 12:42:57;;;;;;;3.90;1.90;;;17.80;34.60;;;;;;5031894;28;20174;-80
2021/05/08 12:45:27;;;;;;;1.60;1.40;;;17.80;35.00;;;;;;5007660;28;20421;-81
2021/05/08 12:47:57;;;;;;;1.73;1.40;;;17.60;36.00;;;;;;5048068;28;20444;-80
2021/05/08 12:50:32;;;;;;;2.50;1.70;;;17.40;35.50;;;;;;5022172;28;20413;-81
2021/05/08 12:53:09;;;;;;;4.70;1.50;;;17.30;35.10;;;;;;5040934;28;20405;-79
2021/05/08 12:55:39;;;;;;;2.63;1.40;;;17.20;35.80;;;;;;5048703;28;20416;-79
2021/05/08 12:58:14;;;;;;;6.53;1.43;;;17.20;35.00;;;;;;5049648;28;20432;-78
2021/05/08 13:00:41;;;;;;;4.33;1.17;;;17.20;35.20;;;;;;5049554;28;20428;-78
2021/05/08 13:03:22;;;;;;;3.33;1.20;;;17.30;34.80;;;;;;5020393;28;20431;-79